createdAt,value
2022-07-30T00:00:36.868Z,1.10
2022-07-30T00:03:04.623Z,0.68
2022-07-30T00:05:31.037Z,0.70
2022-07-30T00:07:57.412Z,0.70
2022-07-30T00:10:24.019Z,0.75
2022-07-30T00:12:51.268Z,0.90
2022-07-30T00:15:17.731Z,0.90
2022-07-30T00:17:46.700Z,0.88
2022-07-30T00:20:15.941Z,0.97
2022-07-30T00:22:42.646Z,0.80
2022-07-30T00:25:09.271Z,0.68
2022-07-30T00:27:35.771Z,1.00
2022-07-30T00:30:04.548Z,0.88
2022-07-30T00:32:31.054Z,0.70
2022-07-30T00:34:57.499Z,0.73
2022-07-30T00:37:23.953Z,0.90
2022-07-30T00:39:50.390Z,0.70
2022-07-30T00:42:20.504Z,0.93
2022-07-30T00:44:46.862Z,0.60
2022-07-30T00:47:13.200Z,1.15
2022-07-30T00:49:44.193Z,0.73
2022-07-30T00:52:10.773Z,1.13
2022-07-30T00:54:37.226Z,1.00
2022-07-30T00:57:03.782Z,0.70
2022-07-30T00:59:31.558Z,0.85
2022-07-30T01:02:00.519Z,0.70
2022-07-30T01:04:27.015Z,0.80
2022-07-30T01:06:53.370Z,0.90
2022-07-30T01:09:19.713Z,0.83
2022-07-30T01:11:46.091Z,0.70
2022-07-30T01:14:12.736Z,0.80
2022-07-30T01:16:42.705Z,0.70
2022-07-30T01:19:40.988Z,0.73
2022-07-30T01:22:30.539Z,0.90
2022-07-30T01:25:25.554Z,0.82
2022-07-30T01:28:07.324Z,0.80
2022-07-30T01:30:38.563Z,0.80
2022-07-30T01:33:07.791Z,0.80
2022-07-30T01:35:35.671Z,0.90
2022-07-30T01:38:05.253Z,0.93
2022-07-30T01:40:32.550Z,0.88
2022-07-30T01:43:00.802Z,0.90
2022-07-30T01:45:29.515Z,0.90
2022-07-30T01:48:02.762Z,1.00
2022-07-30T01:50:30.695Z,1.00
2022-07-30T01:52:58.866Z,0.80
2022-07-30T01:55:30.109Z,0.95
2022-07-30T01:57:59.075Z,0.80
2022-07-30T02:00:28.205Z,0.67
2022-07-30T02:02:54.652Z,1.00
2022-07-30T02:05:21.175Z,1.10
2022-07-30T02:08:01.048Z,0.80
2022-07-30T02:10:41.130Z,0.80
2022-07-30T02:13:10.615Z,0.80
2022-07-30T02:15:51.924Z,0.70
2022-07-30T02:18:23.812Z,0.80
2022-07-30T02:21:05.396Z,1.05
2022-07-30T02:23:40.775Z,1.00
2022-07-30T02:26:09.908Z,0.80
2022-07-30T02:28:39.062Z,0.98
2022-07-30T02:31:17.288Z,1.00
2022-07-30T02:33:48.500Z,0.88
2022-07-30T02:36:18.526Z,1.05
2022-07-30T02:38:47.346Z,0.90
2022-07-30T02:41:15.303Z,1.10
2022-07-30T02:43:42.836Z,1.15
2022-07-30T02:46:11.463Z,0.95
2022-07-30T02:48:39.913Z,0.95
2022-07-30T02:51:08.091Z,0.93
2022-07-30T02:53:36.584Z,0.90
2022-07-30T02:56:05.131Z,0.70
2022-07-30T02:58:33.012Z,0.90
2022-07-30T03:01:00.947Z,1.10
2022-07-30T03:03:30.719Z,1.00
2022-07-30T03:05:59.468Z,0.90
2022-07-30T03:08:27.423Z,1.10
2022-07-30T03:10:55.768Z,0.98
2022-07-30T03:13:24.103Z,0.90
2022-07-30T03:15:52.531Z,1.00
2022-07-30T03:18:21.881Z,1.23
2022-07-30T03:20:56.231Z,0.80
2022-07-30T03:23:23.858Z,0.82
2022-07-30T03:26:02.048Z,0.90
2022-07-30T03:28:32.540Z,0.90
2022-07-30T03:30:59.886Z,0.70
2022-07-30T03:33:38.554Z,1.13
2022-07-30T03:36:06.824Z,1.08
2022-07-30T03:38:34.420Z,0.93
2022-07-30T03:41:00.859Z,1.40
2022-07-30T03:43:33.083Z,1.20
2022-07-30T03:46:02.619Z,0.80
2022-07-30T03:48:29.456Z,1.02
2022-07-30T03:50:56.626Z,0.88
2022-07-30T03:53:24.981Z,1.10
2022-07-30T03:55:52.871Z,1.00
2022-07-30T03:58:19.644Z,0.93
2022-07-30T04:00:50.808Z,0.73
2022-07-30T04:03:31.872Z,0.98
2022-07-30T04:05:58.485Z,0.80
2022-07-30T04:08:25.223Z,1.25
2022-07-30T04:10:52.316Z,0.98
2022-07-30T04:13:18.703Z,1.00
2022-07-30T04:16:39.826Z,1.00
2022-07-30T04:19:14.380Z,0.97
2022-07-30T04:21:42.463Z,0.82
2022-07-30T04:24:10.655Z,1.02
2022-07-30T04:26:37.809Z,1.30
2022-07-30T04:29:07.344Z,0.88
2022-07-30T04:31:39.855Z,1.07
2022-07-30T04:34:08.402Z,0.88
2022-07-30T04:36:35.728Z,1.17
2022-07-30T04:39:02.291Z,1.00
2022-07-30T04:41:29.530Z,1.20
2022-07-30T04:44:14.850Z,1.00
2022-07-30T04:46:41.312Z,1.00
2022-07-30T04:49:08.383Z,1.10
2022-07-30T04:51:37.574Z,2.25
2022-07-30T04:54:06.899Z,1.25
2022-07-30T04:56:34.952Z,1.30
2022-07-30T04:59:02.155Z,1.02
2022-07-30T05:01:40.446Z,1.13
2022-07-30T05:04:10.581Z,1.17
2022-07-30T05:06:38.500Z,1.02
2022-07-30T05:09:06.192Z,1.23
2022-07-30T05:11:32.620Z,1.35
2022-07-30T05:13:59.043Z,1.40
2022-07-30T05:16:25.738Z,1.63
2022-07-30T05:18:52.114Z,1.27
2022-07-30T05:21:18.630Z,1.83
2022-07-30T05:23:50.298Z,2.10
2022-07-30T05:26:21.136Z,2.42
2022-07-30T05:28:52.122Z,1.80
2022-07-30T05:31:20.488Z,2.35
2022-07-30T05:33:47.751Z,1.93
2022-07-30T05:36:14.114Z,1.65
2022-07-30T05:38:40.537Z,2.00
2022-07-30T05:41:31.103Z,2.10
2022-07-30T05:43:55.811Z,1.90
2022-07-30T05:46:23.140Z,2.93
2022-07-30T05:48:49.583Z,2.83
2022-07-30T05:51:16.072Z,3.40
2022-07-30T05:53:42.528Z,2.70
2022-07-30T05:56:08.917Z,2.78
2022-07-30T05:58:35.867Z,2.77
2022-07-30T06:01:02.321Z,2.20
2022-07-30T06:03:28.712Z,2.20
2022-07-30T06:05:55.053Z,2.10
2022-07-30T06:08:21.423Z,2.53
2022-07-30T06:10:47.808Z,2.10
2022-07-30T06:13:14.209Z,1.90
2022-07-30T06:15:40.755Z,1.83
2022-07-30T06:18:07.332Z,1.70
2022-07-30T06:20:34.027Z,1.70
2022-07-30T06:23:00.515Z,1.30
2022-07-30T06:25:27.267Z,2.17
2022-07-30T06:27:53.735Z,1.40
2022-07-30T06:30:20.235Z,1.65
2022-07-30T06:32:57.090Z,1.65
2022-07-30T06:35:23.484Z,1.87
2022-07-30T06:38:05.838Z,1.63
2022-07-30T06:40:33.991Z,1.60
2022-07-30T06:43:00.430Z,1.33
2022-07-30T06:45:26.819Z,1.27
2022-07-30T06:47:57.441Z,1.90
2022-07-30T06:50:23.982Z,1.25
2022-07-30T06:52:50.406Z,0.95
2022-07-30T06:55:16.920Z,1.08
2022-07-30T06:57:43.404Z,1.77
2022-07-30T07:00:10.405Z,1.30
2022-07-30T07:02:36.840Z,0.82
2022-07-30T07:05:03.455Z,1.30
2022-07-30T07:07:41.127Z,1.25
2022-07-30T07:10:08.688Z,1.23
2022-07-30T07:12:35.110Z,1.37
2022-07-30T07:15:01.557Z,1.10
2022-07-30T07:17:28.604Z,1.42
2022-07-30T07:20:00.259Z,1.50
2022-07-30T07:22:28.376Z,1.17
2022-07-30T07:24:54.762Z,0.90
2022-07-30T07:27:21.205Z,1.75
2022-07-30T07:30:04.548Z,1.67
2022-07-30T07:32:33.989Z,1.00
2022-07-30T07:35:00.631Z,1.35
2022-07-30T07:37:27.633Z,1.10
2022-07-30T07:39:53.988Z,1.10
2022-07-30T07:42:20.410Z,0.90
2022-07-30T07:44:46.773Z,1.20
2022-07-30T07:47:13.136Z,1.10
2022-07-30T07:49:39.731Z,1.00
2022-07-30T07:52:06.309Z,1.23
2022-07-30T07:54:32.696Z,1.13
2022-07-30T07:56:59.403Z,1.25
2022-07-30T07:59:40.331Z,1.10
2022-07-30T08:02:08.361Z,1.23
2022-07-30T08:04:35.276Z,0.88
2022-07-30T08:07:01.914Z,1.00
2022-07-30T08:09:43.859Z,1.15
2022-07-30T08:12:12.589Z,1.00
2022-07-30T08:14:39.479Z,0.83
2022-07-30T08:17:06.375Z,1.45
2022-07-30T08:19:33.419Z,1.05
2022-07-30T08:21:59.895Z,0.82
2022-07-30T08:24:26.841Z,1.02
2022-07-30T08:26:53.387Z,0.93
2022-07-30T08:29:19.835Z,0.60
2022-07-30T08:31:46.207Z,0.90
2022-07-30T08:34:13.494Z,0.80
2022-07-30T08:36:40.524Z,1.15
2022-07-30T08:39:06.925Z,1.30
2022-07-30T08:41:33.664Z,0.75
2022-07-30T08:44:01.300Z,0.75
2022-07-30T08:46:30.729Z,0.77
2022-07-30T08:48:58.048Z,0.90
2022-07-30T08:51:24.843Z,0.80
2022-07-30T08:53:51.250Z,0.68
2022-07-30T08:56:17.982Z,1.08
2022-07-30T08:58:45.543Z,0.63
2022-07-30T09:01:11.981Z,0.68
2022-07-30T09:03:43.926Z,1.13
2022-07-30T09:06:11.305Z,1.00
2022-07-30T09:08:37.675Z,0.88
2022-07-30T09:11:04.083Z,0.73
2022-07-30T09:13:37.560Z,0.80
2022-07-30T09:16:05.802Z,1.20
2022-07-30T09:18:38.315Z,1.48
2022-07-30T09:21:20.756Z,0.90
2022-07-30T09:24:11.378Z,1.13
2022-07-30T09:27:01.955Z,0.80
2022-07-30T09:29:29.714Z,1.47
2022-07-30T09:31:59.791Z,0.90
2022-07-30T09:34:28.992Z,1.05
2022-07-30T09:37:01.110Z,0.90
2022-07-30T09:39:36.164Z,1.17
2022-07-30T09:42:05.042Z,1.00
2022-07-30T09:44:31.640Z,1.10
2022-07-30T09:46:58.582Z,0.77
2022-07-30T09:49:29.143Z,1.15
2022-07-30T09:51:57.471Z,1.10
2022-07-30T09:54:25.956Z,1.10
2022-07-30T09:57:15.931Z,1.15
2022-07-30T09:59:52.560Z,0.77
2022-07-30T10:02:19.344Z,0.80
2022-07-30T10:04:46.822Z,0.98
2022-07-30T10:07:25.515Z,1.07
2022-07-30T10:09:54.052Z,1.38
2022-07-30T10:12:20.679Z,1.17
2022-07-30T10:14:53.683Z,1.77
2022-07-30T10:17:22.080Z,1.00
2022-07-30T10:19:48.958Z,1.10
2022-07-30T10:22:17.036Z,0.77
2022-07-30T10:24:45.612Z,0.85
2022-07-30T10:27:12.571Z,1.02
2022-07-30T10:29:42.566Z,1.08
2022-07-30T10:32:09.508Z,0.97
2022-07-30T10:34:37.925Z,1.00
2022-07-30T10:37:12.363Z,1.73
2022-07-30T10:39:56.962Z,0.93
2022-07-30T10:42:48.241Z,0.80
2022-07-30T10:45:19.508Z,0.90
2022-07-30T10:47:50.953Z,0.80
2022-07-30T10:50:22.281Z,0.60
2022-07-30T10:52:55.778Z,0.68
2022-07-30T10:55:32.938Z,0.80
2022-07-30T10:58:06.990Z,0.77
2022-07-30T11:03:16.238Z,0.90
2022-07-30T11:05:45.830Z,0.60
2022-07-30T11:08:35.800Z,0.68
2022-07-30T11:12:01.033Z,0.70
2022-07-30T11:14:10.515Z,0.98
2022-07-30T11:16:36.899Z,0.93
2022-07-30T11:19:53.354Z,0.57
2022-07-30T11:22:22.271Z,0.60
2022-07-30T11:24:49.744Z,0.90
2022-07-30T11:27:36.070Z,1.20
2022-07-30T11:30:04.654Z,1.05
2022-07-30T11:32:33.425Z,1.08
2022-07-30T11:35:17.483Z,1.02
2022-07-30T11:38:08.980Z,0.90
2022-07-30T11:41:05.376Z,0.80
2022-07-30T11:43:35.221Z,0.70
2022-07-30T11:46:10.153Z,0.65
2022-07-30T11:48:42.099Z,0.70
2022-07-30T11:51:09.325Z,0.87
2022-07-30T11:53:36.603Z,0.70
2022-07-30T11:56:06.580Z,0.80
2022-07-30T11:58:37.064Z,0.70
2022-07-30T12:01:13.219Z,0.50
2022-07-30T12:03:41.418Z,0.90
2022-07-30T12:06:20.196Z,0.70
2022-07-30T12:08:48.918Z,1.20
2022-07-30T12:11:15.596Z,0.63
2022-07-30T12:13:46.182Z,0.80
2022-07-30T12:16:17.481Z,0.70
2022-07-30T12:18:45.367Z,0.52
2022-07-30T12:21:12.744Z,0.60
2022-07-30T12:23:43.169Z,0.68
2022-07-30T12:26:21.044Z,0.90
2022-07-30T12:28:47.804Z,0.80
2022-07-30T12:31:18.111Z,0.95
2022-07-30T12:33:44.728Z,0.60
2022-07-30T12:36:28.278Z,0.82
2022-07-30T12:38:56.579Z,0.85
2022-07-30T12:41:22.965Z,0.83
2022-07-30T12:43:56.192Z,1.00
2022-07-30T12:46:27.504Z,0.50
2022-07-30T12:48:56.940Z,1.15
2022-07-30T12:51:27.144Z,0.85
2022-07-30T12:53:55.563Z,0.70
2022-07-30T12:56:27.131Z,0.70
2022-07-30T12:58:56.440Z,0.82
2022-07-30T13:01:42.752Z,1.45
2022-07-30T13:04:10.004Z,0.98
2022-07-30T13:06:38.013Z,0.90
2022-07-30T13:09:05.023Z,0.82
2022-07-30T13:11:40.509Z,0.73
2022-07-30T13:14:07.237Z,0.50
2022-07-30T13:16:35.684Z,0.80
2022-07-30T13:19:06.788Z,0.80
2022-07-30T13:21:33.943Z,0.52
2022-07-30T13:24:00.678Z,0.70
2022-07-30T13:26:29.412Z,0.75
2022-07-30T13:29:01.549Z,0.90
2022-07-30T13:31:28.434Z,0.83
2022-07-30T13:34:09.157Z,0.80
2022-07-30T13:36:35.512Z,0.70
2022-07-30T13:39:01.849Z,0.85
2022-07-30T13:41:29.352Z,0.68
2022-07-30T13:43:55.709Z,0.90
2022-07-30T13:46:22.034Z,0.57
2022-07-30T13:48:48.554Z,0.80
2022-07-30T13:51:16.478Z,0.68
2022-07-30T13:53:42.961Z,0.60
2022-07-30T13:56:12.782Z,1.10
2022-07-30T13:58:40.479Z,0.70
2022-07-30T14:01:07.090Z,0.70
2022-07-30T14:03:35.135Z,0.80
2022-07-30T14:06:10.939Z,0.80
2022-07-30T14:08:38.665Z,0.87
2022-07-30T14:11:05.057Z,0.60
2022-07-30T14:13:31.680Z,0.70
2022-07-30T14:15:58.385Z,0.65
2022-07-30T14:18:24.747Z,0.80
2022-07-30T14:20:53.507Z,0.70
2022-07-30T14:23:20.108Z,0.68
2022-07-30T14:25:46.712Z,0.80
2022-07-30T14:28:13.176Z,0.70
2022-07-30T14:30:39.561Z,1.00
2022-07-30T14:33:05.984Z,1.20
2022-07-30T14:35:32.449Z,0.85
2022-07-30T14:37:58.852Z,0.75
2022-07-30T14:40:25.232Z,0.90
2022-07-30T14:42:51.649Z,1.10
2022-07-30T14:45:18.082Z,1.43
2022-07-30T14:47:44.459Z,0.70
2022-07-30T14:50:10.908Z,0.60
2022-07-30T14:52:38.681Z,0.50
2022-07-30T14:55:07.501Z,0.80
2022-07-30T14:57:34.451Z,0.60
2022-07-30T15:00:01.674Z,0.80
2022-07-30T15:02:28.024Z,0.60
2022-07-30T15:04:54.390Z,0.80
2022-07-30T15:07:20.763Z,0.90
2022-07-30T15:09:47.254Z,0.90
2022-07-30T15:12:26.566Z,0.80
2022-07-30T15:14:53.715Z,1.00
2022-07-30T15:17:20.119Z,1.10
2022-07-30T15:19:50.415Z,0.98
2022-07-30T15:22:21.455Z,1.27
2022-07-30T15:24:48.600Z,1.50
2022-07-30T15:27:14.973Z,1.45
2022-07-30T15:29:41.394Z,1.27
2022-07-30T15:32:07.831Z,1.35
2022-07-30T15:34:34.648Z,1.43
2022-07-30T15:37:02.475Z,1.20
2022-07-30T15:39:29.481Z,1.48
2022-07-30T15:41:56.951Z,1.15
2022-07-30T15:44:26.286Z,1.10
2022-07-30T15:46:53.033Z,1.20
2022-07-30T15:49:19.514Z,1.30
2022-07-30T15:51:49.048Z,0.90
2022-07-30T15:54:22.534Z,0.90
2022-07-30T15:56:53.794Z,1.10
2022-07-30T15:59:21.145Z,1.20
2022-07-30T16:01:47.973Z,1.08
2022-07-30T16:04:18.323Z,0.93
2022-07-30T16:06:46.305Z,1.42
2022-07-30T16:09:12.662Z,0.90
2022-07-30T16:11:39.288Z,1.10
2022-07-30T16:14:05.736Z,1.02
2022-07-30T16:16:32.172Z,0.90
2022-07-30T16:18:58.622Z,0.90
2022-07-30T16:21:25.084Z,0.77
2022-07-30T16:23:52.488Z,1.20
2022-07-30T16:26:20.246Z,1.20
2022-07-30T16:28:46.759Z,1.15
2022-07-30T16:31:13.241Z,1.40
2022-07-30T16:33:39.830Z,1.20
2022-07-30T16:36:06.598Z,1.00
2022-07-30T16:38:32.939Z,1.35
2022-07-30T16:40:59.435Z,0.80
2022-07-30T16:43:25.857Z,1.10
2022-07-30T16:45:52.254Z,0.70
2022-07-30T16:48:19.011Z,1.13
2022-07-30T16:50:45.690Z,0.82
2022-07-30T16:53:14.457Z,0.90
2022-07-30T16:55:41.955Z,0.98
2022-07-30T16:58:08.590Z,0.90
2022-07-30T17:00:34.927Z,0.80
2022-07-30T17:03:01.461Z,1.13
2022-07-30T17:05:28.081Z,1.23
2022-07-30T17:07:54.555Z,0.82
2022-07-30T17:10:25.737Z,0.75
2022-07-30T17:12:53.592Z,1.07
2022-07-30T17:15:20.122Z,0.73
2022-07-30T17:17:58.258Z,1.02
2022-07-30T17:20:24.823Z,0.93
2022-07-30T17:22:51.255Z,1.00
2022-07-30T17:25:17.596Z,0.83
2022-07-30T17:27:43.974Z,0.90
2022-07-30T17:30:10.854Z,0.80
2022-07-30T17:32:37.227Z,1.00
2022-07-30T17:35:04.225Z,1.08
2022-07-30T17:37:30.835Z,1.30
2022-07-30T17:40:27.064Z,1.23
2022-07-30T17:42:45.952Z,0.82
2022-07-30T17:45:12.695Z,1.00
2022-07-30T17:47:39.082Z,0.80
2022-07-30T17:50:06.655Z,1.30
2022-07-30T17:52:33.883Z,0.90
2022-07-30T17:55:02.884Z,1.00
2022-07-30T17:57:29.392Z,1.00
2022-07-30T17:59:56.847Z,1.00
2022-07-30T18:02:27.718Z,1.50
2022-07-30T18:04:56.467Z,0.90
2022-07-30T18:07:23.345Z,1.00
2022-07-30T18:09:49.755Z,1.30
2022-07-30T18:12:16.129Z,1.00
2022-07-30T18:14:43.001Z,0.87
2022-07-30T18:17:14.119Z,0.82
2022-07-30T18:19:41.019Z,1.15
2022-07-30T18:22:07.639Z,1.17
2022-07-30T18:24:34.047Z,1.15
2022-07-30T18:27:06.990Z,1.27
2022-07-30T18:29:33.414Z,1.08
2022-07-30T18:32:00.206Z,1.00
2022-07-30T18:34:26.839Z,1.50
2022-07-30T18:36:53.222Z,1.52
2022-07-30T18:39:19.634Z,1.20
2022-07-30T18:41:46.023Z,1.30
2022-07-30T18:44:12.550Z,1.08
2022-07-30T18:46:38.990Z,1.30
2022-07-30T18:49:26.575Z,1.65
2022-07-30T18:51:51.990Z,1.30
2022-07-30T18:54:18.693Z,1.40
2022-07-30T18:56:45.063Z,1.02
2022-07-30T18:59:11.578Z,0.93
2022-07-30T19:01:39.062Z,1.20
2022-07-30T19:04:06.169Z,1.00
2022-07-30T19:06:32.693Z,1.02
2022-07-30T19:09:00.059Z,0.90
2022-07-30T19:11:26.521Z,0.85
2022-07-30T19:13:53.019Z,1.05
2022-07-30T19:16:20.584Z,0.90
2022-07-30T19:18:46.980Z,0.82
2022-07-30T19:21:14.237Z,1.08
2022-07-30T19:23:40.776Z,1.10
2022-07-30T19:26:09.298Z,1.13
2022-07-30T19:28:36.288Z,1.10
2022-07-30T19:31:02.653Z,1.05
2022-07-30T19:33:29.048Z,1.05
2022-07-30T19:35:55.423Z,0.90
2022-07-30T19:38:23.918Z,1.35
2022-07-30T19:40:51.319Z,0.90
2022-07-30T19:43:17.967Z,0.95
2022-07-30T19:45:50.538Z,1.05
2022-07-30T19:48:29.486Z,1.20
2022-07-30T19:50:58.861Z,1.20
2022-07-30T19:53:25.503Z,1.10
2022-07-30T19:55:51.910Z,1.10
2022-07-30T19:58:18.745Z,0.95
2022-07-30T20:00:49.678Z,0.90
2022-07-30T20:03:16.644Z,0.90
2022-07-30T20:05:57.368Z,0.77
2022-07-30T20:08:26.437Z,1.02
2022-07-30T20:10:53.147Z,1.10
2022-07-30T20:13:19.646Z,1.00
2022-07-30T20:15:48.048Z,1.10
2022-07-30T20:18:14.740Z,0.90
2022-07-30T20:20:41.338Z,1.05
2022-07-30T20:23:08.014Z,1.05
2022-07-30T20:25:36.962Z,1.00
2022-07-30T20:28:04.886Z,1.17
2022-07-30T20:30:31.548Z,1.10
2022-07-30T20:32:57.982Z,1.00
2022-07-30T20:35:26.371Z,0.82
2022-07-30T20:37:55.604Z,1.20
2022-07-30T20:40:24.387Z,0.80
2022-07-30T20:42:53.429Z,1.23
2022-07-30T20:45:24.225Z,1.00
2022-07-30T20:47:55.227Z,0.80
2022-07-30T20:50:30.896Z,1.00
2022-07-30T20:53:01.080Z,0.82
2022-07-30T20:55:28.122Z,1.30
2022-07-30T20:57:59.351Z,1.10
2022-07-30T21:00:41.774Z,0.90
2022-07-30T21:03:13.825Z,0.80
2022-07-30T21:05:42.941Z,0.90
2022-07-30T21:08:10.161Z,1.00
2022-07-30T21:10:40.829Z,1.00
2022-07-30T21:13:11.043Z,0.98
2022-07-30T21:15:45.362Z,0.88
2022-07-30T21:18:24.850Z,1.05
2022-07-30T21:20:52.877Z,1.50
2022-07-30T21:23:22.210Z,1.35
2022-07-30T21:26:03.077Z,1.10
2022-07-30T21:28:35.221Z,2.38
2022-07-30T21:31:02.663Z,1.48
2022-07-30T21:33:31.246Z,1.40
2022-07-30T21:35:58.644Z,1.95
2022-07-30T21:38:26.495Z,1.17
2022-07-30T21:40:53.321Z,1.90
2022-07-30T21:43:29.398Z,1.40
2022-07-30T21:45:57.721Z,1.40
2022-07-30T21:48:25.954Z,1.40
2022-07-30T21:50:54.452Z,1.83
2022-07-30T21:53:29.436Z,1.42
2022-07-30T21:56:07.898Z,1.92
2022-07-30T21:58:34.283Z,1.20
2022-07-30T22:01:08.350Z,1.00
2022-07-30T22:04:03.307Z,1.20
2022-07-30T22:06:33.359Z,1.23
2022-07-30T22:08:59.708Z,1.10
2022-07-30T22:11:42.639Z,1.00
2022-07-30T22:14:11.756Z,1.30
2022-07-30T22:16:38.627Z,1.02
2022-07-30T22:19:12.667Z,1.10
2022-07-30T22:21:40.888Z,1.83
2022-07-30T22:24:07.616Z,1.67
2022-07-30T22:26:34.004Z,0.98
2022-07-30T22:29:01.005Z,1.30
2022-07-30T22:31:28.126Z,1.10
2022-07-30T22:34:05.767Z,1.00
2022-07-30T22:36:37.894Z,1.10
2022-07-30T22:39:04.315Z,1.20
2022-07-30T22:41:35.737Z,1.17
2022-07-30T22:44:03.314Z,1.10
2022-07-30T22:46:32.032Z,1.10
2022-07-30T22:48:59.224Z,0.80
2022-07-30T22:51:59.300Z,1.83
2022-07-30T22:54:13.355Z,1.15
2022-07-30T22:56:40.328Z,1.10
2022-07-30T22:59:06.707Z,1.15
2022-07-30T23:01:33.085Z,1.10
2022-07-30T23:03:59.514Z,1.10
2022-07-30T23:06:28.014Z,1.10
2022-07-30T23:08:56.482Z,1.10
2022-07-30T23:11:22.939Z,0.82
2022-07-30T23:13:49.426Z,1.10
2022-07-30T23:16:15.797Z,1.00
2022-07-30T23:18:42.183Z,1.00
2022-07-30T23:21:09.837Z,1.20
2022-07-30T23:23:36.397Z,0.80
2022-07-30T23:26:04.439Z,1.63
2022-07-30T23:28:30.981Z,1.10
2022-07-30T23:30:57.383Z,1.15
2022-07-30T23:33:23.760Z,1.20
2022-07-30T23:35:50.131Z,1.10
2022-07-30T23:38:16.646Z,1.20
2022-07-30T23:40:43.031Z,1.08
2022-07-30T23:43:09.382Z,1.13
2022-07-30T23:45:35.757Z,1.02
2022-07-30T23:48:03.543Z,1.27
2022-07-30T23:50:33.864Z,1.60
2022-07-30T23:53:01.001Z,1.52
2022-07-30T23:55:27.652Z,1.13
2022-07-30T23:57:54.057Z,1.13
